Time;durP1;ratioP1;P1;durP2;ratioP2;P2;SDS_P1;SDS_P2;PMS_P1;PMS_P2;Temp;Humidity;BMP_temperature;BMP_pressure;BME280_temperature;BME280_humidity;BME280_pressure;Samples;Min_cycle;Max_cycle;Signal;HPM_P1;HPM_P2
2020/12/21 01:04:26;;;;;;;19.27;5.50;;;;;;;;;;10864922;22;21319;-74
2020/12/21 01:09:28;;;;;;;14.53;4.57;;;;;;;;;;10415769;28;20326;-73
2020/12/21 01:14:30;;;;;;;19.47;4.67;;;;;;;;;;10396341;28;20218;-73
2020/12/21 01:19:33;;;;;;;20.43;4.70;;;;;;;;;;10408833;28;20211;-74
2020/12/21 01:24:34;;;;;;;17.27;4.70;;;;;;;;;;10401393;28;20211;-74
2020/12/21 01:29:36;;;;;;;18.93;4.90;;;;;;;;;;10404004;28;20235;-74
2020/12/21 01:34:39;;;;;;;17.33;5.50;;;;;;;;;;10408947;28;20216;-74
2020/12/21 01:39:48;;;;;;;16.60;4.77;;;;;;;;;;10403092;28;20611;-73
2020/12/21 01:44:49;;;;;;;20.10;4.83;;;;;;;;;;10396573;28;21299;-73
2020/12/21 01:49:52;;;;;;;18.97;5.13;;;;;;;;;;10404921;28;20898;-73
2020/12/21 01:54:55;;;;;;;21.90;4.57;;;;;;;;;;10409481;28;20716;-74
2020/12/21 01:59:57;;;;;;;16.03;4.77;;;;;;;;;;10405692;28;20222;-74
2020/12/21 02:05:00;;;;;;;22.33;5.23;;;;;;;;;;10378476;28;21010;-74
2020/12/21 02:10:03;;;;;;;18.77;5.17;;;;;;;;;;10362889;28;20615;-74
2020/12/21 02:15:05;;;;;;;15.60;5.07;;;;;;;;;;10356947;28;20722;-73
2020/12/21 02:20:08;;;;;;;22.43;5.30;;;;;;;;;;10366884;28;20231;-73
2020/12/21 02:25:11;;;;;;;19.60;4.90;;;;;;;;;;10376181;28;20694;-74
2020/12/21 02:30:12;;;;;;;25.23;5.43;;;;;;;;;;10368938;28;20671;-73
2020/12/21 02:35:16;;;;;;;19.43;5.40;;;;;;;;;;10372619;28;20285;-74
2020/12/21 02:40:19;;;;;;;21.07;5.00;;;;;;;;;;10371420;28;20291;-74
2020/12/21 02:45:21;;;;;;;18.17;4.63;;;;;;;;;;10371104;28;20209;-74
2020/12/21 02:50:23;;;;;;;18.53;4.33;;;;;;;;;;10357829;28;20854;-73
2020/12/21 02:55:26;;;;;;;17.93;4.90;;;;;;;;;;10363559;28;20204;-73
2020/12/21 03:00:28;;;;;;;19.83;4.83;;;;;;;;;;10365647;28;20212;-73
2020/12/21 03:05:30;;;;;;;18.60;4.93;;;;;;;;;;10364424;28;20247;-73
2020/12/21 03:10:32;;;;;;;26.20;5.27;;;;;;;;;;10366016;28;20246;-73
2020/12/21 03:15:34;;;;;;;17.93;4.97;;;;;;;;;;10365463;28;20227;-74
2020/12/21 03:20:36;;;;;;;17.73;4.97;;;;;;;;;;10365898;28;20209;-74
2020/12/21 03:25:38;;;;;;;20.33;5.30;;;;;;;;;;10364777;28;20219;-73
2020/12/21 03:30:40;;;;;;;17.67;4.77;;;;;;;;;;10364381;28;20244;-73
2020/12/21 03:35:42;;;;;;;16.10;4.63;;;;;;;;;;10363400;28;20270;-75
2020/12/21 03:40:45;;;;;;;20.93;4.70;;;;;;;;;;10359712;28;20398;-75
2020/12/21 03:45:47;;;;;;;20.50;4.70;;;;;;;;;;10368068;28;20695;-75
2020/12/21 03:50:49;;;;;;;22.80;5.07;;;;;;;;;;10371829;28;20240;-75
2020/12/21 03:55:52;;;;;;;21.07;5.30;;;;;;;;;;10355520;28;20390;-75
2020/12/21 04:00:53;;;;;;;18.03;4.80;;;;;;;;;;10365420;28;20224;-74
2020/12/21 04:05:55;;;;;;;17.30;4.97;;;;;;;;;;10360885;28;20768;-74
2020/12/21 04:10:59;;;;;;;20.87;4.67;;;;;;;;;;10360304;28;20703;-75
2020/12/21 04:16:01;;;;;;;18.60;4.93;;;;;;;;;;10364002;28;20224;-74
2020/12/21 04:21:03;;;;;;;21.47;5.30;;;;;;;;;;10358811;28;20225;-75
2020/12/21 04:26:06;;;;;;;14.17;5.23;;;;;;;;;;10350550;28;20216;-74
2020/12/21 04:31:08;;;;;;;21.40;5.60;;;;;;;;;;10367602;28;20236;-75
2020/12/21 04:36:10;;;;;;;20.07;6.30;;;;;;;;;;10366009;28;20204;-75
2020/12/21 04:41:12;;;;;;;24.47;5.60;;;;;;;;;;10358571;28;20297;-75
2020/12/21 04:46:16;;;;;;;31.10;6.03;;;;;;;;;;10355194;28;20217;-75
2020/12/21 04:51:18;;;;;;;24.43;5.27;;;;;;;;;;10363916;28;20239;-75
2020/12/21 04:56:21;;;;;;;23.27;6.40;;;;;;;;;;10357817;28;20221;-74
2020/12/21 05:01:24;;;;;;;24.23;6.20;;;;;;;;;;10362451;28;20216;-75
2020/12/21 05:06:26;;;;;;;23.03;5.40;;;;;;;;;;10359416;28;20270;-74
2020/12/21 05:11:29;;;;;;;21.07;6.00;;;;;;;;;;10352667;28;20243;-75
2020/12/21 05:16:30;;;;;;;18.63;5.57;;;;;;;;;;10362540;28;20267;-75
2020/12/21 05:21:32;;;;;;;18.97;5.43;;;;;;;;;;10374040;28;20224;-73
2020/12/21 05:26:35;;;;;;;18.93;5.47;;;;;;;;;;10371144;28;20209;-73
2020/12/21 05:31:48;;;;;;;18.63;6.00;;;;;;;;;;10363193;28;21102;-73
2020/12/21 05:36:50;;;;;;;14.50;4.70;;;;;;;;;;10362957;28;20216;-75
2020/12/21 05:41:53;;;;;;;23.43;4.97;;;;;;;;;;10365235;28;20219;-74
2020/12/21 05:46:55;;;;;;;17.83;5.20;;;;;;;;;;10356873;28;20216;-74
2020/12/21 05:52:05;;;;;;;25.73;5.23;;;;;;;;;;10362160;28;20710;-74
2020/12/21 05:57:07;;;;;;;22.40;5.40;;;;;;;;;;10375375;28;20223;-76
2020/12/21 06:02:10;;;;;;;20.33;5.60;;;;;;;;;;10357899;28;20229;-75
2020/12/21 06:07:14;;;;;;;22.47;5.90;;;;;;;;;;10364461;28;20594;-75
2020/12/21 06:12:19;;;;;;;17.23;4.73;;;;;;;;;;10367370;28;20903;-74
2020/12/21 06:17:21;;;;;;;18.97;4.60;;;;;;;;;;10353639;28;20212;-73
2020/12/21 06:22:23;;;;;;;18.27;4.90;;;;;;;;;;10372642;28;20682;-74
2020/12/21 06:27:36;;;;;;;18.87;5.27;;;;;;;;;;10363419;28;20208;-74
2020/12/21 06:32:38;;;;;;;21.47;5.40;;;;;;;;;;10372329;28;20246;-73
2020/12/21 06:37:40;;;;;;;16.20;4.83;;;;;;;;;;10360569;28;20213;-72
2020/12/21 06:42:43;;;;;;;17.00;5.53;;;;;;;;;;10369787;28;20222;-73
2020/12/21 06:47:45;;;;;;;17.77;4.57;;;;;;;;;;10377950;28;20219;-73
2020/12/21 06:52:47;;;;;;;20.87;4.90;;;;;;;;;;10365616;28;20243;-73
2020/12/21 06:57:51;;;;;;;16.37;4.80;;;;;;;;;;10363583;28;20699;-73
2020/12/21 07:02:53;;;;;;;17.43;4.70;;;;;;;;;;10368790;28;20494;-73
2020/12/21 07:07:58;;;;;;;14.77;4.43;;;;;;;;;;10369115;28;20307;-75
2020/12/21 07:13:02;;;;;;;19.07;4.57;;;;;;;;;;10372031;28;20237;-75
2020/12/21 07:18:05;;;;;;;11.93;4.07;;;;;;;;;;10366134;28;20225;-75
2020/12/21 07:23:06;;;;;;;18.97;5.00;;;;;;;;;;10357333;28;20300;-75
2020/12/21 07:28:09;;;;;;;20.80;4.77;;;;;;;;;;10361934;28;20328;-75
2020/12/21 07:33:11;;;;;;;21.53;5.13;;;;;;;;;;10362869;28;20240;-75
2020/12/21 07:38:13;;;;;;;15.90;4.73;;;;;;;;;;10362978;28;20204;-75
2020/12/21 07:43:20;;;;;;;19.33;4.50;;;;;;;;;;10354967;28;20217;-75
2020/12/21 07:48:22;;;;;;;22.00;5.30;;;;;;;;;;10360542;28;20211;-72
2020/12/21 07:53:24;;;;;;;13.07;4.97;;;;;;;;;;10352157;28;20248;-72
2020/12/21 07:58:27;;;;;;;16.87;5.13;;;;;;;;;;10355970;28;20242;-73
2020/12/21 08:03:30;;;;;;;14.77;4.80;;;;;;;;;;10356098;28;20256;-75
2020/12/21 08:08:31;;;;;;;23.73;5.30;;;;;;;;;;10344371;28;20213;-74
2020/12/21 08:13:36;;;;;;;30.90;6.60;;;;;;;;;;10349197;28;20239;-71
2020/12/21 08:18:38;;;;;;;26.10;5.80;;;;;;;;;;10357391;28;20216;-75
2020/12/21 08:23:40;;;;;;;19.90;5.23;;;;;;;;;;10358198;28;20245;-73
2020/12/21 08:28:42;;;;;;;17.20;5.70;;;;;;;;;;10361570;28;20235;-73
2020/12/21 08:33:56;;;;;;;19.13;5.83;;;;;;;;;;10348909;28;20241;-72
2020/12/21 08:39:08;;;;;;;19.80;6.33;;;;;;;;;;10352627;28;20216;-73
2020/12/21 08:44:15;;;;;;;19.07;6.37;;;;;;;;;;10363282;28;20289;-72
2020/12/21 08:49:17;;;;;;;18.80;6.13;;;;;;;;;;10359338;28;20224;-71
2020/12/21 08:54:19;;;;;;;20.97;7.17;;;;;;;;;;10348684;28;20315;-71
2020/12/21 08:59:23;;;;;;;20.40;7.10;;;;;;;;;;10362579;28;20217;-72
2020/12/21 09:04:25;;;;;;;23.07;6.40;;;;;;;;;;10344525;28;20611;-72
2020/12/21 09:09:27;;;;;;;16.73;6.50;;;;;;;;;;10359726;28;20207;-74
2020/12/21 09:14:39;;;;;;;21.73;7.00;;;;;;;;;;10354558;28;20239;-75
2020/12/21 09:19:41;;;;;;;18.23;6.03;;;;;;;;;;10349390;28;20591;-71
2020/12/21 09:24:42;;;;;;;17.23;6.03;;;;;;;;;;10358592;28;20712;-72
2020/12/21 09:29:45;;;;;;;18.53;6.47;;;;;;;;;;10368917;28;20311;-73
2020/12/21 09:34:48;;;;;;;25.47;6.83;;;;;;;;;;10371016;28;20259;-73
2020/12/21 09:39:50;;;;;;;17.00;5.97;;;;;;;;;;10367378;28;20233;-71
2020/12/21 09:44:53;;;;;;;21.73;6.40;;;;;;;;;;10362286;28;20215;-70
2020/12/21 09:49:54;;;;;;;16.53;6.20;;;;;;;;;;10377307;28;20562;-70
2020/12/21 09:54:56;;;;;;;18.30;6.33;;;;;;;;;;10368789;28;20243;-70
2020/12/21 09:59:59;;;;;;;26.60;6.27;;;;;;;;;;10358619;28;20285;-70
2020/12/21 10:05:01;;;;;;;14.40;6.03;;;;;;;;;;10357776;28;20620;-72
2020/12/21 10:10:04;;;;;;;16.03;6.23;;;;;;;;;;10366228;28;20216;-70
2020/12/21 10:15:06;;;;;;;20.97;6.13;;;;;;;;;;10367807;28;20240;-78
2020/12/21 10:20:08;;;;;;;23.67;6.03;;;;;;;;;;10359946;28;20220;-76
2020/12/21 10:25:10;;;;;;;19.70;5.67;;;;;;;;;;10376594;28;20254;-75
2020/12/21 10:30:15;;;;;;;19.90;6.10;;;;;;;;;;10368799;28;20212;-72
2020/12/21 10:35:17;;;;;;;17.40;5.70;;;;;;;;;;10368706;28;21000;-78
2020/12/21 10:40:19;;;;;;;17.37;5.27;;;;;;;;;;10361134;28;20216;-79
2020/12/21 10:45:24;;;;;;;19.53;5.47;;;;;;;;;;10366644;28;20217;-79
2020/12/21 10:50:26;;;;;;;21.87;5.70;;;;;;;;;;10362176;28;20216;-78
2020/12/21 10:55:28;;;;;;;12.27;4.83;;;;;;;;;;10364257;28;20216;-76
2020/12/21 11:00:30;;;;;;;18.40;4.60;;;;;;;;;;10367423;28;20227;-73
2020/12/21 11:05:32;;;;;;;18.27;5.23;;;;;;;;;;10357864;28;20244;-70
2020/12/21 11:10:34;;;;;;;14.00;4.13;;;;;;;;;;10354135;28;20208;-74
2020/12/21 11:15:37;;;;;;;13.43;4.47;;;;;;;;;;10360338;28;20215;-72
2020/12/21 11:20:39;;;;;;;16.33;4.40;;;;;;;;;;10351474;28;20212;-71
2020/12/21 11:25:41;;;;;;;10.03;4.10;;;;;;;;;;10364895;28;20216;-72
2020/12/21 11:30:44;;;;;;;15.67;4.43;;;;;;;;;;10352628;28;20221;-73
2020/12/21 11:35:46;;;;;;;17.20;4.50;;;;;;;;;;10360298;28;20227;-72
2020/12/21 11:40:48;;;;;;;14.20;4.60;;;;;;;;;;10356421;28;20722;-71
2020/12/21 11:45:51;;;;;;;16.83;3.97;;;;;;;;;;10358105;28;20221;-73
2020/12/21 11:50:53;;;;;;;9.67;3.67;;;;;;;;;;10359263;28;20690;-72
2020/12/21 11:55:55;;;;;;;10.57;3.70;;;;;;;;;;10359144;28;20219;-73
2020/12/21 12:00:57;;;;;;;13.10;3.90;;;;;;;;;;10366403;28;20216;-71
2020/12/21 12:05:59;;;;;;;12.40;3.50;;;;;;;;;;10352031;28;20231;-71
2020/12/21 12:11:02;;;;;;;13.13;4.03;;;;;;;;;;10365801;28;20612;-72
2020/12/21 12:16:04;;;;;;;16.80;3.97;;;;;;;;;;10357787;28;20221;-72
2020/12/21 12:21:06;;;;;;;12.80;3.83;;;;;;;;;;10363114;28;20224;-73
2020/12/21 12:26:14;;;;;;;14.67;4.20;;;;;;;;;;10360211;28;20212;-71
2020/12/21 12:31:18;;;;;;;12.33;4.97;;;;;;;;;;10357340;28;20260;-72
2020/12/21 12:36:20;;;;;;;15.87;4.63;;;;;;;;;;10354076;28;20217;-70
2020/12/21 12:41:24;;;;;;;13.53;4.87;;;;;;;;;;10344381;28;20216;-73
2020/12/21 12:46:26;;;;;;;17.07;4.50;;;;;;;;;;10332103;28;20608;-70
2020/12/21 12:51:28;;;;;;;14.47;4.57;;;;;;;;;;10344178;28;20867;-70
2020/12/21 12:56:30;;;;;;;13.43;4.73;;;;;;;;;;10359632;28;20231;-72
2020/12/21 13:01:33;;;;;;;19.30;5.00;;;;;;;;;;10337141;28;20216;-74
2020/12/21 13:06:35;;;;;;;9.93;3.90;;;;;;;;;;10339725;28;20247;-77
2020/12/21 13:11:37;;;;;;;7.10;4.30;;;;;;;;;;10346733;28;20347;-75
2020/12/21 13:16:40;;;;;;;9.70;4.10;;;;;;;;;;10359125;28;20227;-69
2020/12/21 13:21:42;;;;;;;13.50;4.40;;;;;;;;;;10357559;28;20359;-69
2020/12/21 13:26:49;;;;;;;12.27;4.60;;;;;;;;;;10340561;28;20213;-59
2020/12/21 13:31:51;;;;;;;8.87;3.83;;;;;;;;;;10355882;28;20506;-59
2020/12/21 13:36:54;;;;;;;11.23;4.17;;;;;;;;;;10345154;28;20216;-57
2020/12/21 13:41:56;;;;;;;12.43;4.00;;;;;;;;;;10341283;28;20208;-59
2020/12/21 13:47:00;;;;;;;12.33;3.90;;;;;;;;;;10356087;28;20248;-59
2020/12/21 13:52:01;;;;;;;10.50;3.47;;;;;;;;;;10343302;28;20247;-60
2020/12/21 13:57:03;;;;;;;7.57;3.13;;;;;;;;;;10360052;28;20212;-61
2020/12/21 14:02:06;;;;;;;8.27;3.03;;;;;;;;;;10355524;28;20271;-59
2020/12/21 14:07:08;;;;;;;4.60;2.40;;;;;;;;;;10341320;28;20233;-58
2020/12/21 14:12:11;;;;;;;6.40;2.70;;;;;;;;;;10337671;28;20251;-59
2020/12/21 14:17:14;;;;;;;10.77;2.60;;;;;;;;;;10365455;28;20208;-59
2020/12/21 14:22:17;;;;;;;8.57;2.50;;;;;;;;;;10358991;28;20660;-59
2020/12/21 14:27:19;;;;;;;10.50;2.47;;;;;;;;;;10361206;28;20239;-58
2020/12/21 14:32:22;;;;;;;7.47;2.60;;;;;;;;;;10353196;28;20244;-62
2020/12/21 14:37:24;;;;;;;5.37;2.33;;;;;;;;;;10350543;28;20263;-61
2020/12/21 14:42:25;;;;;;;6.10;2.10;;;;;;;;;;10361400;28;20220;-62
2020/12/21 14:47:28;;;;;;;8.40;2.53;;;;;;;;;;10348175;28;20213;-63
2020/12/21 14:52:30;;;;;;;7.80;2.80;;;;;;;;;;10355884;28;20699;-63
2020/12/21 14:57:32;;;;;;;7.57;2.60;;;;;;;;;;10367097;28;20216;-63
2020/12/21 15:02:34;;;;;;;8.37;2.13;;;;;;;;;;10355308;28;20228;-64
2020/12/21 15:07:36;;;;;;;6.77;2.07;;;;;;;;;;10353079;28;20675;-63
2020/12/21 15:12:38;;;;;;;3.43;2.27;;;;;;;;;;10366049;28;20749;-62
2020/12/21 15:17:41;;;;;;;3.30;2.20;;;;;;;;;;10352275;28;20549;-62
2020/12/21 15:22:44;;;;;;;5.90;2.20;;;;;;;;;;10353250;28;20213;-64
2020/12/21 15:27:46;;;;;;;5.27;2.40;;;;;;;;;;10368371;28;20216;-63
2020/12/21 15:32:49;;;;;;;4.50;2.20;;;;;;;;;;10357260;28;20241;-63
2020/12/21 15:37:51;;;;;;;7.57;2.50;;;;;;;;;;10340918;28;20941;-63
2020/12/21 15:42:53;;;;;;;4.67;2.40;;;;;;;;;;10344407;28;20228;-63
2020/12/21 15:47:56;;;;;;;4.40;2.57;;;;;;;;;;10345795;28;20212;-63
2020/12/21 15:52:58;;;;;;;4.20;2.43;;;;;;;;;;10355919;28;20240;-64
2020/12/21 15:58:00;;;;;;;9.13;2.83;;;;;;;;;;10339388;28;20223;-63
2020/12/21 16:03:03;;;;;;;4.63;2.63;;;;;;;;;;10361542;28;20258;-62
2020/12/21 16:08:04;;;;;;;3.97;2.77;;;;;;;;;;10341575;28;20621;-64
2020/12/21 16:13:07;;;;;;;4.60;2.90;;;;;;;;;;10354174;28;20242;-63
2020/12/21 16:18:09;;;;;;;3.77;2.83;;;;;;;;;;10357912;28;20212;-63
2020/12/21 16:23:12;;;;;;;5.30;3.40;;;;;;;;;;10361777;28;20212;-63
2020/12/21 16:28:13;;;;;;;5.60;3.50;;;;;;;;;;10350212;28;20215;-64
2020/12/21 16:33:17;;;;;;;6.37;3.40;;;;;;;;;;10353198;28;20468;-64
2020/12/21 16:38:19;;;;;;;5.80;3.57;;;;;;;;;;10349615;28;20359;-64
2020/12/21 16:43:21;;;;;;;7.03;3.80;;;;;;;;;;10350336;28;20220;-66
2020/12/21 16:48:24;;;;;;;7.60;4.40;;;;;;;;;;10353442;28;20212;-64
2020/12/21 16:53:25;;;;;;;5.90;4.20;;;;;;;;;;10352287;28;20243;-64
2020/12/21 16:58:27;;;;;;;5.93;4.60;;;;;;;;;;10354515;28;20220;-64
2020/12/21 17:03:32;;;;;;;7.60;4.70;;;;;;;;;;10356667;28;20354;-65
2020/12/21 17:08:34;;;;;;;8.20;4.70;;;;;;;;;;10348023;28;20227;-66
2020/12/21 17:13:35;;;;;;;9.50;4.70;;;;;;;;;;10351582;28;20754;-66
2020/12/21 17:18:38;;;;;;;6.83;4.83;;;;;;;;;;10349015;28;20213;-59
2020/12/21 17:23:40;;;;;;;8.70;4.77;;;;;;;;;;10357306;28;20239;-60
2020/12/21 17:28:42;;;;;;;5.93;4.83;;;;;;;;;;10355300;28;21031;-59
2020/12/21 17:33:45;;;;;;;7.50;5.53;;;;;;;;;;10359405;28;20244;-60
2020/12/21 17:38:47;;;;;;;6.87;5.40;;;;;;;;;;10359572;28;20228;-60
2020/12/21 17:43:49;;;;;;;8.80;5.73;;;;;;;;;;10353079;28;20243;-59
2020/12/21 17:48:51;;;;;;;7.00;5.30;;;;;;;;;;10366045;28;20232;-60
2020/12/21 17:53:53;;;;;;;7.13;5.83;;;;;;;;;;10365721;28;20248;-60
2020/12/21 17:58:55;;;;;;;9.67;6.50;;;;;;;;;;10368625;28;20274;-60
2020/12/21 18:03:58;;;;;;;7.97;5.90;;;;;;;;;;10357622;28;20236;-60
2020/12/21 18:08:59;;;;;;;10.50;7.03;;;;;;;;;;10360920;28;20204;-60
2020/12/21 18:14:01;;;;;;;12.20;7.37;;;;;;;;;;10358703;28;20239;-60
2020/12/21 18:19:05;;;;;;;11.13;7.83;;;;;;;;;;10342735;28;20307;-60
2020/12/21 18:24:07;;;;;;;12.20;8.67;;;;;;;;;;10367024;28;20675;-60
2020/12/21 18:29:09;;;;;;;11.37;8.23;;;;;;;;;;10365495;28;20204;-60
2020/12/21 18:34:12;;;;;;;11.50;8.63;;;;;;;;;;10367958;28;20240;-59
2020/12/21 18:39:14;;;;;;;10.90;8.57;;;;;;;;;;10365257;28;20232;-58
2020/12/21 18:44:17;;;;;;;14.03;8.83;;;;;;;;;;10357894;28;22281;-58
2020/12/21 18:49:19;;;;;;;14.27;10.20;;;;;;;;;;10361447;28;20212;-65
2020/12/21 18:54:21;;;;;;;14.87;10.77;;;;;;;;;;10353957;28;20240;-67
2020/12/21 18:59:23;;;;;;;19.47;12.27;;;;;;;;;;10345959;28;20236;-65
2020/12/21 19:04:26;;;;;;;18.50;13.03;;;;;;;;;;10361085;28;21656;-58
2020/12/21 19:09:29;;;;;;;19.30;13.03;;;;;;;;;;10368049;28;20224;-59
2020/12/21 19:14:31;;;;;;;26.60;15.10;;;;;;;;;;10361886;28;20741;-58
2020/12/21 19:19:33;;;;;;;25.00;15.63;;;;;;;;;;10353134;28;20212;-59
2020/12/21 19:24:35;;;;;;;27.13;17.20;;;;;;;;;;10353510;28;20216;-58
2020/12/21 19:29:41;;;;;;;27.40;17.30;;;;;;;;;;10348225;28;20591;-58
2020/12/21 19:34:45;;;;;;;28.07;17.47;;;;;;;;;;10342444;28;20735;-58
2020/12/21 19:39:47;;;;;;;29.33;18.03;;;;;;;;;;10353212;28;20297;-58
2020/12/21 19:44:49;;;;;;;37.87;20.60;;;;;;;;;;10348518;28;20212;-59
2020/12/21 19:49:51;;;;;;;31.73;20.53;;;;;;;;;;10355791;28;20236;-59
2020/12/21 19:54:53;;;;;;;33.57;20.73;;;;;;;;;;10349496;28;20247;-59
2020/12/21 19:59:55;;;;;;;29.33;18.90;;;;;;;;;;10365232;28;20216;-59
2020/12/21 20:04:58;;;;;;;27.63;17.43;;;;;;;;;;10357474;28;20410;-60
2020/12/21 20:10:00;;;;;;;29.40;18.20;;;;;;;;;;10359264;28;20224;-59
2020/12/21 20:15:02;;;;;;;27.47;17.33;;;;;;;;;;10359994;28;20236;-59
2020/12/21 20:20:06;;;;;;;25.67;16.60;;;;;;;;;;10336142;28;20216;-60
2020/12/21 20:25:09;;;;;;;28.03;16.83;;;;;;;;;;10360892;28;20204;-59
2020/12/21 20:30:11;;;;;;;24.43;16.53;;;;;;;;;;10357392;28;20468;-59
2020/12/21 20:35:14;;;;;;;30.83;18.13;;;;;;;;;;10360735;28;20232;-59
2020/12/21 20:40:16;;;;;;;25.70;15.37;;;;;;;;;;10350097;28;20220;-59
2020/12/21 20:45:17;;;;;;;23.07;15.67;;;;;;;;;;10354963;28;20220;-58
2020/12/21 20:50:20;;;;;;;26.40;16.80;;;;;;;;;;10359065;28;20460;-59
2020/12/21 20:55:22;;;;;;;27.57;17.50;;;;;;;;;;10362371;28;20239;-59
2020/12/21 21:00:24;;;;;;;29.87;17.40;;;;;;;;;;10355894;28;20216;-59
2020/12/21 21:05:26;;;;;;;32.43;20.47;;;;;;;;;;10358187;28;20999;-59
2020/12/21 21:10:28;;;;;;;32.57;21.40;;;;;;;;;;10351546;28;20212;-59
2020/12/21 21:15:30;;;;;;;37.53;21.87;;;;;;;;;;10362597;28;20235;-59
2020/12/21 21:20:33;;;;;;;39.10;22.60;;;;;;;;;;10353598;28;20216;-59
2020/12/21 21:25:35;;;;;;;40.63;23.20;;;;;;;;;;10359400;28;20223;-59
2020/12/21 21:30:36;;;;;;;36.63;22.57;;;;;;;;;;10353986;28;20216;-59
2020/12/21 21:35:39;;;;;;;38.80;22.93;;;;;;;;;;10360274;28;20247;-59
2020/12/21 21:40:41;;;;;;;39.07;22.77;;;;;;;;;;10358540;28;20589;-59
2020/12/21 21:45:43;;;;;;;31.93;20.07;;;;;;;;;;10360218;28;20589;-59
2020/12/21 21:50:45;;;;;;;32.23;16.50;;;;;;;;;;10355280;28;20212;-59
2020/12/21 21:55:48;;;;;;;20.47;14.40;;;;;;;;;;10357601;28;20240;-59
2020/12/21 22:00:50;;;;;;;24.63;15.30;;;;;;;;;;10354103;28;20220;-59
2020/12/21 22:05:53;;;;;;;25.90;14.13;;;;;;;;;;10365198;28;20243;-59
2020/12/21 22:10:55;;;;;;;17.43;11.10;;;;;;;;;;10349284;28;20299;-59
2020/12/21 22:15:57;;;;;;;14.27;9.30;;;;;;;;;;10360225;28;20450;-59
2020/12/21 22:21:00;;;;;;;14.10;8.67;;;;;;;;;;10361293;28;20212;-59
2020/12/21 22:26:02;;;;;;;13.47;8.23;;;;;;;;;;10364879;28;20217;-59
2020/12/21 22:31:04;;;;;;;11.83;8.30;;;;;;;;;;10361803;28;20215;-59
2020/12/21 22:36:09;;;;;;;7.57;5.73;;;;;;;;;;10372102;28;20243;-59
2020/12/21 22:41:11;;;;;;;9.50;6.13;;;;;;;;;;10351892;28;20508;-59
2020/12/21 22:46:12;;;;;;;11.03;6.93;;;;;;;;;;10370482;28;20212;-59
2020/12/21 22:51:15;;;;;;;7.13;4.30;;;;;;;;;;10350511;28;20216;-59
2020/12/21 22:56:17;;;;;;;11.53;5.53;;;;;;;;;;10366456;28;20657;-59
2020/12/21 23:01:19;;;;;;;6.97;5.70;;;;;;;;;;10369942;28;20209;-59
2020/12/21 23:06:22;;;;;;;6.60;5.60;;;;;;;;;;10355981;28;20247;-64
2020/12/21 23:11:24;;;;;;;4.53;3.87;;;;;;;;;;10369339;28;20217;-64
2020/12/21 23:16:26;;;;;;;5.37;3.90;;;;;;;;;;10379443;28;20378;-64
2020/12/21 23:21:29;;;;;;;7.23;5.73;;;;;;;;;;10366822;28;20220;-64
2020/12/21 23:26:31;;;;;;;9.07;4.67;;;;;;;;;;10371745;28;20220;-59
2020/12/21 23:31:33;;;;;;;8.77;5.40;;;;;;;;;;10362909;28;20213;-59
2020/12/21 23:36:36;;;;;;;4.57;4.00;;;;;;;;;;10363747;28;20236;-59
2020/12/21 23:41:41;;;;;;;7.57;4.80;;;;;;;;;;10363591;28;20216;-59
2020/12/21 23:46:44;;;;;;;7.50;6.50;;;;;;;;;;10363088;28;20216;-60
2020/12/21 23:51:46;;;;;;;5.60;4.63;;;;;;;;;;10372824;28;20754;-59
2020/12/21 23:56:48;;;;;;;7.07;6.17;;;;;;;;;;10366282;28;20239;-59
